sensor_id;sensor_type;location;lat;lon;timestamp;P1;durP1;ratioP1;P2;durP2;ratioP2
1128;SDS011;553;51.038;7.216;2022-08-11T00:02:49;7.20;;;4.37;;
1128;SDS011;553;51.038;7.216;2022-08-11T00:05:18;4.50;;;3.70;;
1128;SDS011;553;51.038;7.216;2022-08-11T00:07:50;4.80;;;3.60;;
1128;SDS011;553;51.038;7.216;2022-08-11T00:10:19;5.80;;;4.13;;
1128;SDS011;553;51.038;7.216;2022-08-11T00:12:52;3.63;;;3.33;;
1128;SDS011;553;51.038;7.216;2022-08-11T00:15:22;5.23;;;3.47;;
1128;SDS011;553;51.038;7.216;2022-08-11T00:17:55;3.57;;;3.27;;
1128;SDS011;553;51.038;7.216;2022-08-11T00:20:27;4.30;;;3.70;;
1128;SDS011;553;51.038;7.216;2022-08-11T00:23:15;5.00;;;3.70;;
1128;SDS011;553;51.038;7.216;2022-08-11T00:25:45;3.97;;;3.50;;
1128;SDS011;553;51.038;7.216;2022-08-11T00:28:23;7.10;;;3.17;;
1128;SDS011;553;51.038;7.216;2022-08-11T00:31:06;5.00;;;3.23;;
1128;SDS011;553;51.038;7.216;2022-08-11T00:36:10;6.63;;;3.37;;
1128;SDS011;553;51.038;7.216;2022-08-11T00:38:41;3.87;;;3.47;;
1128;SDS011;553;51.038;7.216;2022-08-11T00:46:54;6.43;;;3.40;;
1128;SDS011;553;51.038;7.216;2022-08-11T00:49:44;4.10;;;3.70;;
1128;SDS011;553;51.038;7.216;2022-08-11T00:55:36;5.50;;;4.23;;
1128;SDS011;553;51.038;7.216;2022-08-11T01:13:32;5.20;;;4.50;;
1128;SDS011;553;51.038;7.216;2022-08-11T01:16:25;4.90;;;4.40;;
1128;SDS011;553;51.038;7.216;2022-08-11T01:40:35;6.57;;;5.37;;
1128;SDS011;553;51.038;7.216;2022-08-11T01:49:27;6.90;;;5.83;;
1128;SDS011;553;51.038;7.216;2022-08-11T01:52:24;6.43;;;5.20;;
1128;SDS011;553;51.038;7.216;2022-08-11T01:55:13;6.73;;;5.80;;
1128;SDS011;553;51.038;7.216;2022-08-11T01:57:55;9.07;;;5.27;;
1128;SDS011;553;51.038;7.216;2022-08-11T02:00:47;5.90;;;5.27;;
1128;SDS011;553;51.038;7.216;2022-08-11T02:03:57;6.93;;;5.23;;
1128;SDS011;553;51.038;7.216;2022-08-11T02:06:47;6.07;;;5.47;;
1128;SDS011;553;51.038;7.216;2022-08-11T02:09:39;6.00;;;4.70;;
1128;SDS011;553;51.038;7.216;2022-08-11T02:20:09;8.13;;;5.10;;
1128;SDS011;553;51.038;7.216;2022-08-11T02:32:06;6.33;;;4.77;;
1128;SDS011;553;51.038;7.216;2022-08-11T02:38:15;7.30;;;4.60;;
1128;SDS011;553;51.038;7.216;2022-08-11T02:40:59;6.17;;;4.97;;
1128;SDS011;553;51.038;7.216;2022-08-11T02:43:58;5.00;;;4.40;;
1128;SDS011;553;51.038;7.216;2022-08-11T02:46:43;6.03;;;4.63;;
1128;SDS011;553;51.038;7.216;2022-08-11T02:55:18;6.17;;;4.20;;
1128;SDS011;553;51.038;7.216;2022-08-11T03:01:37;6.00;;;4.40;;
1128;SDS011;553;51.038;7.216;2022-08-11T03:13:28;8.10;;;4.17;;
1128;SDS011;553;51.038;7.216;2022-08-11T03:16:20;5.43;;;3.97;;
1128;SDS011;553;51.038;7.216;2022-08-11T03:21:58;4.83;;;3.73;;
1128;SDS011;553;51.038;7.216;2022-08-11T03:24:53;5.03;;;3.80;;
1128;SDS011;553;51.038;7.216;2022-08-11T03:27:46;5.63;;;4.03;;
1128;SDS011;553;51.038;7.216;2022-08-11T03:31:39;7.20;;;4.67;;
1128;SDS011;553;51.038;7.216;2022-08-11T03:36:39;5.13;;;4.00;;
1128;SDS011;553;51.038;7.216;2022-08-11T03:42:32;4.27;;;3.73;;
1128;SDS011;553;51.038;7.216;2022-08-11T03:45:33;4.97;;;3.93;;
1128;SDS011;553;51.038;7.216;2022-08-11T03:48:08;5.60;;;3.70;;
1128;SDS011;553;51.038;7.216;2022-08-11T03:51:00;3.93;;;3.53;;
1128;SDS011;553;51.038;7.216;2022-08-11T03:53:48;4.83;;;4.03;;
1128;SDS011;553;51.038;7.216;2022-08-11T03:59:40;5.43;;;3.83;;
1128;SDS011;553;51.038;7.216;2022-08-11T04:02:40;6.00;;;3.97;;
1128;SDS011;553;51.038;7.216;2022-08-11T04:08:04;5.13;;;3.93;;
1128;SDS011;553;51.038;7.216;2022-08-11T04:11:17;4.87;;;3.53;;
1128;SDS011;553;51.038;7.216;2022-08-11T04:14:14;4.37;;;3.70;;
1128;SDS011;553;51.038;7.216;2022-08-11T04:17:47;5.47;;;3.50;;
1128;SDS011;553;51.038;7.216;2022-08-11T04:23:26;7.90;;;3.73;;
1128;SDS011;553;51.038;7.216;2022-08-11T04:26:47;4.43;;;3.43;;
1128;SDS011;553;51.038;7.216;2022-08-11T04:29:55;7.40;;;4.00;;
1128;SDS011;553;51.038;7.216;2022-08-11T04:32:38;4.77;;;4.10;;
1128;SDS011;553;51.038;7.216;2022-08-11T04:38:24;4.47;;;4.00;;
1128;SDS011;553;51.038;7.216;2022-08-11T04:47:32;4.60;;;4.10;;
1128;SDS011;553;51.038;7.216;2022-08-11T04:56:53;6.37;;;3.60;;
1128;SDS011;553;51.038;7.216;2022-08-11T05:03:14;5.10;;;3.50;;
1128;SDS011;553;51.038;7.216;2022-08-11T05:11:52;7.03;;;3.47;;
1128;SDS011;553;51.038;7.216;2022-08-11T05:14:49;6.60;;;3.83;;
1128;SDS011;553;51.038;7.216;2022-08-11T05:17:37;4.50;;;3.23;;
1128;SDS011;553;51.038;7.216;2022-08-11T05:20:45;8.80;;;3.50;;
1128;SDS011;553;51.038;7.216;2022-08-11T05:23:38;6.13;;;3.53;;
1128;SDS011;553;51.038;7.216;2022-08-11T05:26:25;4.00;;;3.60;;
1128;SDS011;553;51.038;7.216;2022-08-11T05:32:38;5.27;;;3.70;;
1128;SDS011;553;51.038;7.216;2022-08-11T05:35:31;7.53;;;3.70;;
1128;SDS011;553;51.038;7.216;2022-08-11T05:38:25;6.03;;;3.40;;
1128;SDS011;553;51.038;7.216;2022-08-11T05:41:14;4.60;;;3.27;;
1128;SDS011;553;51.038;7.216;2022-08-11T05:44:03;3.70;;;3.20;;
1128;SDS011;553;51.038;7.216;2022-08-11T05:46:50;4.37;;;3.40;;
1128;SDS011;553;51.038;7.216;2022-08-11T05:49:37;4.60;;;3.50;;
1128;SDS011;553;51.038;7.216;2022-08-11T05:52:24;9.63;;;4.00;;
1128;SDS011;553;51.038;7.216;2022-08-11T05:55:22;8.77;;;3.83;;
1128;SDS011;553;51.038;7.216;2022-08-11T05:58:40;4.70;;;3.50;;
1128;SDS011;553;51.038;7.216;2022-08-11T06:01:09;6.27;;;3.60;;
1128;SDS011;553;51.038;7.216;2022-08-11T06:03:48;6.00;;;3.37;;
1128;SDS011;553;51.038;7.216;2022-08-11T06:06:35;5.40;;;3.67;;
1128;SDS011;553;51.038;7.216;2022-08-11T06:09:10;4.37;;;3.60;;
1128;SDS011;553;51.038;7.216;2022-08-11T06:11:40;4.83;;;3.50;;
1128;SDS011;553;51.038;7.216;2022-08-11T06:14:10;4.27;;;3.30;;
1128;SDS011;553;51.038;7.216;2022-08-11T06:16:38;6.00;;;4.27;;
1128;SDS011;553;51.038;7.216;2022-08-11T06:19:08;5.27;;;3.60;;
1128;SDS011;553;51.038;7.216;2022-08-11T06:21:35;4.30;;;3.83;;
1128;SDS011;553;51.038;7.216;2022-08-11T06:24:03;4.10;;;3.70;;
1128;SDS011;553;51.038;7.216;2022-08-11T06:26:37;6.37;;;3.80;;
1128;SDS011;553;51.038;7.216;2022-08-11T06:29:26;4.23;;;3.33;;
1128;SDS011;553;51.038;7.216;2022-08-11T06:32:03;4.90;;;3.00;;
1128;SDS011;553;51.038;7.216;2022-08-11T06:34:34;5.60;;;3.60;;
1128;SDS011;553;51.038;7.216;2022-08-11T06:37:22;6.80;;;3.67;;
1128;SDS011;553;51.038;7.216;2022-08-11T06:45:52;6.60;;;3.50;;
1128;SDS011;553;51.038;7.216;2022-08-11T06:48:29;6.00;;;3.17;;
1128;SDS011;553;51.038;7.216;2022-08-11T06:51:02;6.30;;;3.50;;
1128;SDS011;553;51.038;7.216;2022-08-11T06:53:44;4.00;;;3.70;;
1128;SDS011;553;51.038;7.216;2022-08-11T06:56:31;5.70;;;3.40;;
1128;SDS011;553;51.038;7.216;2022-08-11T06:59:39;3.60;;;3.30;;
1128;SDS011;553;51.038;7.216;2022-08-11T07:02:27;4.80;;;4.03;;
1128;SDS011;553;51.038;7.216;2022-08-11T07:05:09;5.70;;;3.90;;
1128;SDS011;553;51.038;7.216;2022-08-11T07:08:10;5.97;;;4.57;;
1128;SDS011;553;51.038;7.216;2022-08-11T07:14:07;7.20;;;3.57;;
1128;SDS011;553;51.038;7.216;2022-08-11T07:17:10;5.73;;;3.67;;
1128;SDS011;553;51.038;7.216;2022-08-11T07:19:43;7.30;;;3.83;;
1128;SDS011;553;51.038;7.216;2022-08-11T07:22:34;4.27;;;3.53;;
1128;SDS011;553;51.038;7.216;2022-08-11T07:25:20;5.47;;;3.67;;
1128;SDS011;553;51.038;7.216;2022-08-11T07:28:09;7.00;;;3.60;;
1128;SDS011;553;51.038;7.216;2022-08-11T07:31:00;6.83;;;3.57;;
1128;SDS011;553;51.038;7.216;2022-08-11T07:33:43;4.93;;;3.43;;
1128;SDS011;553;51.038;7.216;2022-08-11T07:36:39;3.63;;;3.30;;
1128;SDS011;553;51.038;7.216;2022-08-11T07:39:14;3.60;;;3.27;;
1128;SDS011;553;51.038;7.216;2022-08-11T07:41:45;7.23;;;3.97;;
1128;SDS011;553;51.038;7.216;2022-08-11T07:44:14;6.30;;;2.97;;
1128;SDS011;553;51.038;7.216;2022-08-11T07:46:42;4.33;;;3.27;;
1128;SDS011;553;51.038;7.216;2022-08-11T07:49:32;4.00;;;3.60;;
1128;SDS011;553;51.038;7.216;2022-08-11T07:52:20;5.80;;;3.33;;
1128;SDS011;553;51.038;7.216;2022-08-11T07:57:35;4.37;;;3.53;;
1128;SDS011;553;51.038;7.216;2022-08-11T08:00:42;6.37;;;3.67;;
1128;SDS011;553;51.038;7.216;2022-08-11T08:03:36;5.63;;;3.47;;
1128;SDS011;553;51.038;7.216;2022-08-11T08:06:23;4.90;;;3.23;;
1128;SDS011;553;51.038;7.216;2022-08-11T08:09:10;5.80;;;3.23;;
1128;SDS011;553;51.038;7.216;2022-08-11T08:11:56;3.70;;;3.30;;
1128;SDS011;553;51.038;7.216;2022-08-11T08:14:44;6.60;;;3.20;;
1128;SDS011;553;51.038;7.216;2022-08-11T08:17:29;4.47;;;3.30;;
1128;SDS011;553;51.038;7.216;2022-08-11T08:20:37;4.67;;;3.40;;
1128;SDS011;553;51.038;7.216;2022-08-11T08:23:07;3.90;;;3.60;;
1128;SDS011;553;51.038;7.216;2022-08-11T08:25:35;5.30;;;3.83;;
1128;SDS011;553;51.038;7.216;2022-08-11T08:28:06;6.53;;;4.03;;
1128;SDS011;553;51.038;7.216;2022-08-11T08:30:42;4.30;;;3.13;;
1128;SDS011;553;51.038;7.216;2022-08-11T08:33:13;5.20;;;3.47;;
1128;SDS011;553;51.038;7.216;2022-08-11T08:35:51;6.53;;;3.50;;
1128;SDS011;553;51.038;7.216;2022-08-11T08:38:40;4.20;;;3.00;;
1128;SDS011;553;51.038;7.216;2022-08-11T08:41:08;6.90;;;3.63;;
1128;SDS011;553;51.038;7.216;2022-08-11T08:43:42;3.43;;;3.00;;
1128;SDS011;553;51.038;7.216;2022-08-11T08:46:14;8.20;;;3.30;;
1128;SDS011;553;51.038;7.216;2022-08-11T08:48:46;3.87;;;3.47;;
1128;SDS011;553;51.038;7.216;2022-08-11T08:51:15;4.63;;;3.03;;
1128;SDS011;553;51.038;7.216;2022-08-11T08:54:22;3.30;;;3.00;;
1128;SDS011;553;51.038;7.216;2022-08-11T08:56:55;5.00;;;3.50;;
1128;SDS011;553;51.038;7.216;2022-08-11T08:59:23;3.50;;;3.20;;
1128;SDS011;553;51.038;7.216;2022-08-11T09:02:12;3.47;;;3.17;;
1128;SDS011;553;51.038;7.216;2022-08-11T09:04:39;4.30;;;3.90;;
1128;SDS011;553;51.038;7.216;2022-08-11T09:07:10;4.87;;;2.97;;
1128;SDS011;553;51.038;7.216;2022-08-11T09:09:48;2.83;;;2.53;;
1128;SDS011;553;51.038;7.216;2022-08-11T09:12:17;3.97;;;3.23;;
1128;SDS011;553;51.038;7.216;2022-08-11T09:15:04;3.10;;;2.90;;
1128;SDS011;553;51.038;7.216;2022-08-11T09:22:47;3.87;;;3.33;;
1128;SDS011;553;51.038;7.216;2022-08-11T09:25:57;3.60;;;3.30;;
1128;SDS011;553;51.038;7.216;2022-08-11T09:28:45;4.57;;;3.23;;
1128;SDS011;553;51.038;7.216;2022-08-11T09:31:14;3.40;;;3.03;;
1128;SDS011;553;51.038;7.216;2022-08-11T09:33:42;8.30;;;2.90;;
1128;SDS011;553;51.038;7.216;2022-08-11T09:36:11;4.03;;;3.27;;
1128;SDS011;553;51.038;7.216;2022-08-11T09:38:57;4.47;;;3.00;;
1128;SDS011;553;51.038;7.216;2022-08-11T09:41:45;4.60;;;2.90;;
1128;SDS011;553;51.038;7.216;2022-08-11T09:44:27;4.90;;;2.50;;
1128;SDS011;553;51.038;7.216;2022-08-11T09:47:18;4.20;;;3.80;;
1128;SDS011;553;51.038;7.216;2022-08-11T09:49:54;2.97;;;2.67;;
1128;SDS011;553;51.038;7.216;2022-08-11T09:52:25;3.40;;;3.10;;
1128;SDS011;553;51.038;7.216;2022-08-11T09:54:54;3.87;;;3.50;;
1128;SDS011;553;51.038;7.216;2022-08-11T09:57:22;3.57;;;3.27;;
1128;SDS011;553;51.038;7.216;2022-08-11T10:00:09;4.13;;;2.80;;
1128;SDS011;553;51.038;7.216;2022-08-11T10:02:41;4.67;;;3.30;;
1128;SDS011;553;51.038;7.216;2022-08-11T10:05:11;5.43;;;3.47;;
1128;SDS011;553;51.038;7.216;2022-08-11T10:08:01;3.60;;;3.30;;
1128;SDS011;553;51.038;7.216;2022-08-11T10:10:29;9.23;;;3.63;;
1128;SDS011;553;51.038;7.216;2022-08-11T10:13:02;4.60;;;4.17;;
1128;SDS011;553;51.038;7.216;2022-08-11T10:15:53;3.60;;;3.30;;
1128;SDS011;553;51.038;7.216;2022-08-11T10:18:40;5.00;;;3.10;;
1128;SDS011;553;51.038;7.216;2022-08-11T10:21:16;5.47;;;3.30;;
1128;SDS011;553;51.038;7.216;2022-08-11T10:24:02;8.10;;;3.77;;
1128;SDS011;553;51.038;7.216;2022-08-11T10:26:51;6.53;;;3.43;;
1128;SDS011;553;51.038;7.216;2022-08-11T10:29:21;3.80;;;3.30;;
1128;SDS011;553;51.038;7.216;2022-08-11T10:32:29;10.87;;;3.70;;
1128;SDS011;553;51.038;7.216;2022-08-11T10:35:28;3.63;;;3.33;;
1128;SDS011;553;51.038;7.216;2022-08-11T10:37:57;4.43;;;3.27;;
1128;SDS011;553;51.038;7.216;2022-08-11T10:40:35;3.60;;;2.93;;
1128;SDS011;553;51.038;7.216;2022-08-11T10:43:03;4.70;;;3.40;;
1128;SDS011;553;51.038;7.216;2022-08-11T10:45:33;3.67;;;3.27;;
1128;SDS011;553;51.038;7.216;2022-08-11T10:48:28;4.30;;;3.10;;
1128;SDS011;553;51.038;7.216;2022-08-11T10:51:00;3.67;;;3.30;;
1128;SDS011;553;51.038;7.216;2022-08-11T10:53:45;3.20;;;3.00;;
1128;SDS011;553;51.038;7.216;2022-08-11T10:56:37;4.10;;;2.80;;
1128;SDS011;553;51.038;7.216;2022-08-11T10:59:23;4.13;;;3.70;;
1128;SDS011;553;51.038;7.216;2022-08-11T11:01:53;4.80;;;3.70;;
1128;SDS011;553;51.038;7.216;2022-08-11T11:04:26;5.43;;;3.17;;
1128;SDS011;553;51.038;7.216;2022-08-11T11:07:16;5.30;;;4.07;;
1128;SDS011;553;51.038;7.216;2022-08-11T11:09:50;7.33;;;3.70;;
1128;SDS011;553;51.038;7.216;2022-08-11T11:12:26;4.03;;;3.60;;
1128;SDS011;553;51.038;7.216;2022-08-11T11:15:17;6.90;;;3.20;;
1128;SDS011;553;51.038;7.216;2022-08-11T11:18:05;8.70;;;3.40;;
1128;SDS011;553;51.038;7.216;2022-08-11T11:20:59;3.33;;;3.00;;
1128;SDS011;553;51.038;7.216;2022-08-11T11:29:09;5.20;;;3.63;;
1128;SDS011;553;51.038;7.216;2022-08-11T11:35:11;5.20;;;3.33;;
1128;SDS011;553;51.038;7.216;2022-08-11T11:37:52;5.07;;;3.30;;
1128;SDS011;553;51.038;7.216;2022-08-11T11:40:30;3.77;;;3.47;;
1128;SDS011;553;51.038;7.216;2022-08-11T11:42:57;4.37;;;3.80;;
1128;SDS011;553;51.038;7.216;2022-08-11T11:45:25;4.57;;;3.33;;
1128;SDS011;553;51.038;7.216;2022-08-11T11:47:56;5.40;;;3.40;;
1128;SDS011;553;51.038;7.216;2022-08-11T11:50:26;3.47;;;3.17;;
1128;SDS011;553;51.038;7.216;2022-08-11T11:53:00;5.13;;;3.80;;
1128;SDS011;553;51.038;7.216;2022-08-11T11:55:29;3.87;;;3.57;;
1128;SDS011;553;51.038;7.216;2022-08-11T11:57:57;4.00;;;3.50;;
1128;SDS011;553;51.038;7.216;2022-08-11T12:00:47;7.20;;;3.53;;
1128;SDS011;553;51.038;7.216;2022-08-11T12:03:35;6.07;;;3.60;;
1128;SDS011;553;51.038;7.216;2022-08-11T12:06:03;8.00;;;4.10;;
1128;SDS011;553;51.038;7.216;2022-08-11T12:08:31;3.93;;;3.43;;
1128;SDS011;553;51.038;7.216;2022-08-11T12:11:02;5.97;;;3.40;;
1128;SDS011;553;51.038;7.216;2022-08-11T12:13:51;3.90;;;3.50;;
1128;SDS011;553;51.038;7.216;2022-08-11T12:16:20;6.67;;;3.73;;
1128;SDS011;553;51.038;7.216;2022-08-11T12:19:06;3.60;;;3.30;;
1128;SDS011;553;51.038;7.216;2022-08-11T12:21:38;4.00;;;3.20;;
1128;SDS011;553;51.038;7.216;2022-08-11T12:24:27;6.00;;;3.57;;
1128;SDS011;553;51.038;7.216;2022-08-11T12:27:13;4.10;;;3.40;;
1128;SDS011;553;51.038;7.216;2022-08-11T12:29:57;3.70;;;3.40;;
1128;SDS011;553;51.038;7.216;2022-08-11T12:32:31;7.57;;;3.93;;
1128;SDS011;553;51.038;7.216;2022-08-11T12:35:00;3.87;;;3.57;;
1128;SDS011;553;51.038;7.216;2022-08-11T12:37:30;4.10;;;3.33;;
1128;SDS011;553;51.038;7.216;2022-08-11T12:40:13;4.50;;;3.47;;
1128;SDS011;553;51.038;7.216;2022-08-11T12:43:20;4.70;;;3.70;;
1128;SDS011;553;51.038;7.216;2022-08-11T12:46:08;4.07;;;3.63;;
1128;SDS011;553;51.038;7.216;2022-08-11T12:48:43;3.67;;;3.30;;
1128;SDS011;553;51.038;7.216;2022-08-11T12:51:31;4.13;;;3.73;;
1128;SDS011;553;51.038;7.216;2022-08-11T12:54:50;9.37;;;3.60;;
1128;SDS011;553;51.038;7.216;2022-08-11T12:57:44;5.87;;;3.60;;
1128;SDS011;553;51.038;7.216;2022-08-11T13:00:30;6.40;;;3.97;;
1128;SDS011;553;51.038;7.216;2022-08-11T13:03:19;4.30;;;3.17;;
1128;SDS011;553;51.038;7.216;2022-08-11T13:06:06;3.77;;;3.47;;
1128;SDS011;553;51.038;7.216;2022-08-11T13:08:34;3.97;;;3.40;;
1128;SDS011;553;51.038;7.216;2022-08-11T13:11:05;4.53;;;3.33;;
1128;SDS011;553;51.038;7.216;2022-08-11T13:14:13;4.53;;;3.90;;
1128;SDS011;553;51.038;7.216;2022-08-11T13:16:41;4.97;;;3.20;;
1128;SDS011;553;51.038;7.216;2022-08-11T13:19:29;4.00;;;3.20;;
1128;SDS011;553;51.038;7.216;2022-08-11T13:21:57;3.60;;;3.30;;
1128;SDS011;553;51.038;7.216;2022-08-11T13:24:25;3.63;;;3.33;;
1128;SDS011;553;51.038;7.216;2022-08-11T13:26:53;7.20;;;3.77;;
1128;SDS011;553;51.038;7.216;2022-08-11T13:29:23;5.67;;;3.30;;
1128;SDS011;553;51.038;7.216;2022-08-11T13:31:51;3.50;;;3.20;;
1128;SDS011;553;51.038;7.216;2022-08-11T13:34:22;5.70;;;2.97;;
1128;SDS011;553;51.038;7.216;2022-08-11T13:36:51;4.40;;;3.20;;
1128;SDS011;553;51.038;7.216;2022-08-11T13:39:24;3.80;;;3.50;;
1128;SDS011;553;51.038;7.216;2022-08-11T13:41:53;3.90;;;3.60;;
1128;SDS011;553;51.038;7.216;2022-08-11T13:44:23;4.20;;;3.50;;
1128;SDS011;553;51.038;7.216;2022-08-11T13:46:53;3.80;;;3.50;;
1128;SDS011;553;51.038;7.216;2022-08-11T13:49:23;4.47;;;3.80;;
1128;SDS011;553;51.038;7.216;2022-08-11T13:51:51;4.13;;;3.57;;
1128;SDS011;553;51.038;7.216;2022-08-11T13:54:23;6.60;;;4.00;;
1128;SDS011;553;51.038;7.216;2022-08-11T13:56:53;5.00;;;3.97;;
1128;SDS011;553;51.038;7.216;2022-08-11T13:59:22;3.83;;;3.40;;
1128;SDS011;553;51.038;7.216;2022-08-11T14:02:01;4.40;;;3.90;;
1128;SDS011;553;51.038;7.216;2022-08-11T14:07:24;4.10;;;3.20;;
1128;SDS011;553;51.038;7.216;2022-08-11T14:10:03;5.83;;;3.60;;
1128;SDS011;553;51.038;7.216;2022-08-11T14:12:32;3.83;;;3.50;;
1128;SDS011;553;51.038;7.216;2022-08-11T14:18:09;4.60;;;3.43;;
1128;SDS011;553;51.038;7.216;2022-08-11T14:20:58;5.03;;;3.53;;
1128;SDS011;553;51.038;7.216;2022-08-11T14:23:46;6.20;;;3.63;;
1128;SDS011;553;51.038;7.216;2022-08-11T14:26:16;4.10;;;3.50;;
1128;SDS011;553;51.038;7.216;2022-08-11T14:29:00;4.53;;;4.13;;
1128;SDS011;553;51.038;7.216;2022-08-11T14:31:31;4.43;;;3.80;;
1128;SDS011;553;51.038;7.216;2022-08-11T14:34:02;4.10;;;3.80;;
1128;SDS011;553;51.038;7.216;2022-08-11T14:36:50;3.90;;;3.50;;
1128;SDS011;553;51.038;7.216;2022-08-11T14:39:21;4.10;;;3.67;;
1128;SDS011;553;51.038;7.216;2022-08-11T14:42:09;4.27;;;3.97;;
1128;SDS011;553;51.038;7.216;2022-08-11T14:44:58;5.50;;;3.43;;
1128;SDS011;553;51.038;7.216;2022-08-11T14:47:49;3.90;;;3.60;;
1128;SDS011;553;51.038;7.216;2022-08-11T14:50:20;6.00;;;3.73;;
1128;SDS011;553;51.038;7.216;2022-08-11T14:52:49;6.50;;;4.10;;
1128;SDS011;553;51.038;7.216;2022-08-11T14:55:17;4.27;;;3.93;;
1128;SDS011;553;51.038;7.216;2022-08-11T14:58:04;6.33;;;4.10;;
1128;SDS011;553;51.038;7.216;2022-08-11T15:00:35;4.47;;;4.07;;
1128;SDS011;553;51.038;7.216;2022-08-11T15:03:04;5.13;;;3.47;;
1128;SDS011;553;51.038;7.216;2022-08-11T15:05:53;5.40;;;3.97;;
1128;SDS011;553;51.038;7.216;2022-08-11T15:08:33;4.10;;;3.67;;
1128;SDS011;553;51.038;7.216;2022-08-11T15:11:20;5.30;;;3.93;;
1128;SDS011;553;51.038;7.216;2022-08-11T15:14:08;4.83;;;4.37;;
1128;SDS011;553;51.038;7.216;2022-08-11T15:16:36;4.10;;;3.70;;
1128;SDS011;553;51.038;7.216;2022-08-11T15:19:27;4.67;;;3.93;;
1128;SDS011;553;51.038;7.216;2022-08-11T15:22:06;4.27;;;3.87;;
1128;SDS011;553;51.038;7.216;2022-08-11T15:24:58;8.00;;;3.67;;
1128;SDS011;553;51.038;7.216;2022-08-11T15:27:25;5.03;;;4.10;;
1128;SDS011;553;51.038;7.216;2022-08-11T15:30:14;4.90;;;3.27;;
1128;SDS011;553;51.038;7.216;2022-08-11T15:33:03;5.00;;;4.17;;
1128;SDS011;553;51.038;7.216;2022-08-11T15:35:51;4.73;;;3.33;;
1128;SDS011;553;51.038;7.216;2022-08-11T15:38:42;4.53;;;3.60;;
1128;SDS011;553;51.038;7.216;2022-08-11T15:41:20;3.97;;;3.67;;
1128;SDS011;553;51.038;7.216;2022-08-11T15:44:23;6.73;;;4.57;;
1128;SDS011;553;51.038;7.216;2022-08-11T15:47:37;6.90;;;3.90;;
1128;SDS011;553;51.038;7.216;2022-08-11T15:50:12;4.80;;;3.90;;
1128;SDS011;553;51.038;7.216;2022-08-11T15:52:43;4.00;;;3.70;;
1128;SDS011;553;51.038;7.216;2022-08-11T15:55:31;4.23;;;3.83;;
1128;SDS011;553;51.038;7.216;2022-08-11T15:58:01;5.80;;;4.00;;
1128;SDS011;553;51.038;7.216;2022-08-11T16:00:50;3.97;;;3.67;;
1128;SDS011;553;51.038;7.216;2022-08-11T16:03:48;4.60;;;3.83;;
1128;SDS011;553;51.038;7.216;2022-08-11T16:09:39;6.30;;;3.63;;
1128;SDS011;553;51.038;7.216;2022-08-11T16:12:19;4.77;;;4.20;;
1128;SDS011;553;51.038;7.216;2022-08-11T16:14:58;4.40;;;3.93;;
1128;SDS011;553;51.038;7.216;2022-08-11T16:17:49;3.83;;;3.40;;
1128;SDS011;553;51.038;7.216;2022-08-11T16:20:22;5.70;;;4.20;;
1128;SDS011;553;51.038;7.216;2022-08-11T16:22:51;3.97;;;3.33;;
1128;SDS011;553;51.038;7.216;2022-08-11T16:25:28;4.13;;;3.83;;
1128;SDS011;553;51.038;7.216;2022-08-11T16:28:18;4.20;;;3.90;;
1128;SDS011;553;51.038;7.216;2022-08-11T16:30:47;3.63;;;3.33;;
1128;SDS011;553;51.038;7.216;2022-08-11T16:33:14;4.03;;;3.63;;
1128;SDS011;553;51.038;7.216;2022-08-11T16:36:02;4.33;;;3.80;;
1128;SDS011;553;51.038;7.216;2022-08-11T16:38:49;4.17;;;3.70;;
1128;SDS011;553;51.038;7.216;2022-08-11T16:41:18;5.90;;;3.53;;
1128;SDS011;553;51.038;7.216;2022-08-11T16:44:07;4.97;;;4.17;;
1128;SDS011;553;51.038;7.216;2022-08-11T16:47:04;4.73;;;4.23;;
1128;SDS011;553;51.038;7.216;2022-08-11T16:49:35;5.23;;;3.93;;
1128;SDS011;553;51.038;7.216;2022-08-11T16:52:07;4.70;;;3.97;;
1128;SDS011;553;51.038;7.216;2022-08-11T16:54:37;4.10;;;3.70;;
1128;SDS011;553;51.038;7.216;2022-08-11T16:57:11;6.13;;;4.60;;
1128;SDS011;553;51.038;7.216;2022-08-11T17:00:09;6.83;;;4.60;;
1128;SDS011;553;51.038;7.216;2022-08-11T17:02:48;5.43;;;3.87;;
1128;SDS011;553;51.038;7.216;2022-08-11T17:05:35;4.60;;;4.00;;
1128;SDS011;553;51.038;7.216;2022-08-11T17:08:29;4.17;;;3.77;;
1128;SDS011;553;51.038;7.216;2022-08-11T17:11:26;6.70;;;3.77;;
1128;SDS011;553;51.038;7.216;2022-08-11T17:14:25;4.60;;;3.70;;
1128;SDS011;553;51.038;7.216;2022-08-11T17:17:05;4.33;;;3.93;;
1128;SDS011;553;51.038;7.216;2022-08-11T17:19:39;4.67;;;4.27;;
1128;SDS011;553;51.038;7.216;2022-08-11T17:22:32;4.73;;;4.33;;
1128;SDS011;553;51.038;7.216;2022-08-11T17:25:19;4.50;;;4.10;;
1128;SDS011;553;51.038;7.216;2022-08-11T17:27:49;10.03;;;4.67;;
1128;SDS011;553;51.038;7.216;2022-08-11T17:30:17;4.40;;;4.00;;
1128;SDS011;553;51.038;7.216;2022-08-11T17:32:46;3.97;;;3.57;;
1128;SDS011;553;51.038;7.216;2022-08-11T17:35:38;4.40;;;3.67;;
1128;SDS011;553;51.038;7.216;2022-08-11T17:40:38;4.20;;;3.80;;
1128;SDS011;553;51.038;7.216;2022-08-11T17:43:27;4.90;;;4.50;;
1128;SDS011;553;51.038;7.216;2022-08-11T17:46:14;4.50;;;3.87;;
1128;SDS011;553;51.038;7.216;2022-08-11T17:49:01;6.73;;;3.60;;
1128;SDS011;553;51.038;7.216;2022-08-11T17:51:33;4.20;;;3.80;;
1128;SDS011;553;51.038;7.216;2022-08-11T17:54:20;4.60;;;4.17;;
1128;SDS011;553;51.038;7.216;2022-08-11T17:57:07;4.30;;;4.00;;
1128;SDS011;553;51.038;7.216;2022-08-11T17:59:53;6.23;;;4.57;;
1128;SDS011;553;51.038;7.216;2022-08-11T18:02:27;5.50;;;3.83;;
1128;SDS011;553;51.038;7.216;2022-08-11T18:05:19;7.57;;;4.00;;
1128;SDS011;553;51.038;7.216;2022-08-11T18:07:47;6.60;;;4.07;;
1128;SDS011;553;51.038;7.216;2022-08-11T18:10:36;4.77;;;3.90;;
1128;SDS011;553;51.038;7.216;2022-08-11T18:13:24;4.77;;;4.27;;
1128;SDS011;553;51.038;7.216;2022-08-11T18:16:12;7.40;;;5.47;;
1128;SDS011;553;51.038;7.216;2022-08-11T18:18:58;4.27;;;3.77;;
1128;SDS011;553;51.038;7.216;2022-08-11T18:21:44;6.93;;;4.43;;
1128;SDS011;553;51.038;7.216;2022-08-11T18:24:49;4.93;;;4.30;;
1128;SDS011;553;51.038;7.216;2022-08-11T18:27:39;4.20;;;3.87;;
1128;SDS011;553;51.038;7.216;2022-08-11T18:30:28;4.20;;;3.60;;
1128;SDS011;553;51.038;7.216;2022-08-11T18:33:38;4.40;;;3.77;;
1128;SDS011;553;51.038;7.216;2022-08-11T18:36:50;4.83;;;3.83;;
1128;SDS011;553;51.038;7.216;2022-08-11T18:39:53;6.20;;;4.10;;
1128;SDS011;553;51.038;7.216;2022-08-11T18:42:43;4.27;;;3.87;;
1128;SDS011;553;51.038;7.216;2022-08-11T18:45:33;4.67;;;4.27;;
1128;SDS011;553;51.038;7.216;2022-08-11T18:48:32;5.73;;;4.20;;
1128;SDS011;553;51.038;7.216;2022-08-11T18:51:21;4.77;;;4.30;;
1128;SDS011;553;51.038;7.216;2022-08-11T18:54:09;6.70;;;4.60;;
1128;SDS011;553;51.038;7.216;2022-08-11T18:56:57;4.60;;;4.20;;
1128;SDS011;553;51.038;7.216;2022-08-11T18:59:46;4.97;;;4.37;;
1128;SDS011;553;51.038;7.216;2022-08-11T19:02:33;5.23;;;4.60;;
1128;SDS011;553;51.038;7.216;2022-08-11T19:05:21;5.53;;;4.80;;
1128;SDS011;553;51.038;7.216;2022-08-11T19:08:33;5.10;;;4.70;;
1128;SDS011;553;51.038;7.216;2022-08-11T19:11:23;4.60;;;4.20;;
1128;SDS011;553;51.038;7.216;2022-08-11T19:14:13;6.73;;;4.43;;
1128;SDS011;553;51.038;7.216;2022-08-11T19:16:59;8.13;;;4.57;;
1128;SDS011;553;51.038;7.216;2022-08-11T19:20:10;5.40;;;4.90;;
1128;SDS011;553;51.038;7.216;2022-08-11T19:23:00;5.63;;;4.60;;
1128;SDS011;553;51.038;7.216;2022-08-11T19:25:48;5.33;;;4.47;;
1128;SDS011;553;51.038;7.216;2022-08-11T19:28:34;6.33;;;5.23;;
1128;SDS011;553;51.038;7.216;2022-08-11T19:31:22;5.60;;;4.87;;
1128;SDS011;553;51.038;7.216;2022-08-11T19:34:12;5.30;;;4.80;;
1128;SDS011;553;51.038;7.216;2022-08-11T19:37:03;7.07;;;4.60;;
1128;SDS011;553;51.038;7.216;2022-08-11T19:39:59;8.23;;;5.00;;
1128;SDS011;553;51.038;7.216;2022-08-11T19:42:48;5.10;;;4.70;;
1128;SDS011;553;51.038;7.216;2022-08-11T19:45:51;10.63;;;5.90;;
1128;SDS011;553;51.038;7.216;2022-08-11T19:48:38;6.73;;;4.60;;
1128;SDS011;553;51.038;7.216;2022-08-11T19:51:25;5.20;;;4.80;;
1128;SDS011;553;51.038;7.216;2022-08-11T19:54:19;5.83;;;4.50;;
1128;SDS011;553;51.038;7.216;2022-08-11T19:57:08;7.30;;;5.03;;
1128;SDS011;553;51.038;7.216;2022-08-11T19:59:54;5.40;;;5.00;;
1128;SDS011;553;51.038;7.216;2022-08-11T20:02:42;5.50;;;5.00;;
1128;SDS011;553;51.038;7.216;2022-08-11T20:05:34;5.70;;;5.20;;
1128;SDS011;553;51.038;7.216;2022-08-11T20:08:25;5.17;;;4.70;;